• Join FlightAware (Why Join?)
  • Login
  • US Flag 
03:48PM EDT


 

Airport Tracker/Info


-or-


 

Live Flight TrackerFlight Track Log ✈ SWA419 ✈ 30-Apr-2013 ✈ KBWI - KSAT

Flight Track Log - Related Links

Times and Time Zones

All times are in EDT time to prevent confusion due to time zone crossing. See the SWA419 flight status page for this flight to view local times or setup timezone preferences in your user account.

Time Position Orientation Groundspeed Altitude Reporting Facility
EDT Latitude Longitude Course Direction KTS MPH feet Rate Location/Type
02:23PM 39.1500 -76.6500 252° West 166 191 1,800  Level Potomac TRACON
02:24PM 39.1333 -76.7167 252° West 244 281 4,100 2,520 Climbing Potomac TRACON
02:25PM 39.1833 -76.7833 314° West 279 321 6,600 2,760 Climbing Potomac TRACON
02:26PM 39.2000 -76.8833 282° West 297 342 9,400 3,300 Climbing Potomac TRACON
02:27PM 39.2167 -76.9833 282° West 306 352 12,700 3,240 Climbing Potomac TRACON
02:28PM 39.2167 -77.1000 270° West 352 405 15,600 3,000 Climbing Potomac TRACON
02:29PM 39.1500 -77.2000 229° Southwest 371 427 18,700 2,160 Climbing Potomac TRACON
02:31PM 38.9828 -77.4289 227° Southwest 376 433 23,000 1,260 Climbing Washington Center
02:32PM 38.9661 -77.5511 260° West 375 432 23,100 1,260 Climbing Washington Center
02:33PM 38.9386 -77.7025 257° West 397 457 25,600 1,920 Climbing Washington Center
02:34PM 38.9175 -77.8328 258° West 418 481 27,000 660 Climbing Washington Center
02:35PM 38.8917 -77.9814 257° West 428 493 27,000 960 Level Washington Center
02:36PM 38.8678 -78.1300 258° West 428 493 29,000 1,920 Climbing Washington Center
02:37PM 38.8542 -78.2839 264° West 433 498 31,000 2,280 Climbing Washington Center
02:38PM 38.8506 -78.4386 268° West 433 498 33,600 2,220 Climbing Washington Center
02:39PM 38.8406 -78.5872 265° West 423 487 35,400 1,620 Climbing Washington Center
02:40PM 38.8203 -78.7331 260° West 423 487 36,800 1,440 Climbing Washington Center
02:41PM 38.7994 -78.8867 260° West 429 494 38,400 1,500 Climbing Washington Center
02:42PM 38.7786 -79.0350 260° West 429 494 39,900 780 Climbing Washington Center
02:43PM 38.7575 -79.1831 260° West 429 494 40,000  Climbing Washington Center
02:44PM 38.7358 -79.3469 260° West 429 494 40,000  Level Washington Center
02:45PM 38.7144 -79.4950 260° West 429 494 40,000  Level Washington Center
02:46PM 38.6908 -79.6453 259° West 429 494 40,000  Level Washington Center
02:47PM 38.6717 -79.7772 260° West 429 494 40,000  Level Washington Center
02:48PM 38.6478 -79.9247 258° West 429 494 40,000  Level Washington Center
02:50PM 38.5886 -80.2931 258° West 425 489 40,000  Level Indianapolis Center
02:52PM 38.5622 -80.4656 259° West 426 490 40,000  Level Indianapolis Center
02:53PM 38.5417 -80.5956 259° West 426 490 40,000  Level Indianapolis Center
02:54PM 38.5178 -80.7447 258° West 427 491 40,000  Level Indianapolis Center
02:55PM 38.4892 -80.9250 259° West 430 495 40,000  Level Indianapolis Center
02:56PM 38.4647 -81.0750 258° West 431 496 40,000  Level Indianapolis Center
02:57PM 38.4403 -81.2250 258° West 429 494 40,000  Level Indianapolis Center
02:58PM 38.4150 -81.3769 258° West 432 497 40,000  Level Indianapolis Center
02:59PM 38.3906 -81.5289 258° West 433 498 40,000  Level Indianapolis Center
03:00PM 38.3658 -81.6789 258° West 429 494 40,000  Level Indianapolis Center
03:01PM 38.3344 -81.8258 255° West 426 490 40,000  Level Indianapolis Center
03:02PM 38.2939 -81.9681 250° West 424 488 40,000  Level Indianapolis Center
03:03PM 38.2542 -82.1108 251° West 426 490 40,000  Level Indianapolis Center
03:04PM 38.2067 -82.2811 251° West 425 489 40,000  Level Indianapolis Center
03:05PM 38.1661 -82.4217 250° West 424 488 40,000  Level Indianapolis Center
03:06PM 38.1242 -82.5692 250° West 423 487 40,000  Level Indianapolis Center
03:07PM 38.0839 -82.7067 250° West 417 480 40,000  Level Indianapolis Center
03:08PM 38.0442 -82.8458 250° West 419 482 40,000  Level Indianapolis Center
03:09PM 38.0039 -82.9831 250° West 417 480 40,000  Level Indianapolis Center
03:10PM 37.9569 -83.1439 250° West 418 481 40,000  Level Indianapolis Center
03:11PM 37.9158 -83.2833 250° West 422 486 40,000  Level Indianapolis Center
03:12PM 37.8753 -83.4200 249° West 419 482 40,000  Level Indianapolis Center
03:13PM 37.8339 -83.5589 249° West 420 483 40,000  Level Indianapolis Center
03:14PM 37.7925 -83.7000 249° West 426 490 40,000  Level Indianapolis Center
03:15PM 37.7807 -83.7311 249° West  Level FlightAware Approximate
03:15PM 37.7431 -83.8608 249° West 424 488 40,000  Level Indianapolis Center
03:16PM 37.7019 -83.9992 249° West 422 486 40,000  Level Indianapolis Center
03:17PM 37.6603 -84.1317 248° West 411 473 40,000  Level Indianapolis Center
03:18PM 37.6203 -84.2658 249° West 410 472 40,000  Level Indianapolis Center
03:19PM 37.5797 -84.3981 249° West 406 467 40,000  Level Indianapolis Center
03:20PM 37.5319 -84.5517 249° West 405 466 40,000  Level Indianapolis Center
03:21PM 37.4914 -84.6836 249° West 405 466 40,000  Level Indianapolis Center
03:23PM 37.4506 -84.8133 248° West 401 461 40,000  Level Indianapolis Center
03:24PM 37.4108 -84.9442 249° West 401 461 40,000  Level Indianapolis Center
03:25PM 37.3686 -85.0728 248° West 399 459 40,000  Level Indianapolis Center
03:26PM 37.3294 -85.2033 249° West 399 459 40,000  Level Indianapolis Center
03:27PM 37.2811 -85.3547 248° West 400 460 40,000  Level Indianapolis Center
03:28PM 37.2403 -85.4853 249° West 400 460 40,000  Level Indianapolis Center
03:29PM 37.1972 -85.6161 248° West 406 467 40,000  Level Indianapolis Center
03:30PM 37.1558 -85.7481 249° West 404 465 40,000  Level Indianapolis Center
03:30PM 37.1378 -85.8008 247° West 398 458 40,000  Level Memphis Center
03:31PM 37.0969 -85.9358 249° West 403 464 40,000  Level Memphis Center
03:32PM 37.0533 -86.0656 247° West 408 470 40,000  Level Memphis Center
03:33PM 37.0119 -86.1950 248° West 408 470 40,000  Level Memphis Center
03:34PM 36.9664 -86.3272 247° West 408 470 40,000  Level Memphis Center
03:35PM 36.9228 -86.4592 248° West 408 470 40,000  Level Memphis Center
03:36PM 36.8786 -86.5858 246° West 400 460 40,000  Level Memphis Center
03:37PM 36.8325 -86.7150 246° West 405 466 40,000  Level Memphis Center
03:38PM 36.7881 -86.8389 246° West 400 460 40,000  Level Memphis Center
03:39PM 36.7417 -86.9678 246° West 405 466 40,000  Level Memphis Center
03:40PM 36.6972 -87.0939 246° West 405 466 40,000  Level Memphis Center
03:41PM 36.6503 -87.2197 245° Southwest 405 466 40,000  Level Memphis Center
03:42PM 36.6033 -87.3406 244° Southwest 398 458 40,000  Level Memphis Center
03:43PM 36.5564 -87.4689 246° West 398 458 40,000  Level Memphis Center
03:44PM 36.5114 -87.5944 246° West 407 468 40,000  Level Memphis Center
03:45PM 36.4681 -87.7069 244° Southwest 402 463 40,000  Level Memphis Center
03:46PM 36.4206 -87.8347 245° Southwest 402 463 40,000  Level Memphis Center
03:47PM 36.3750 -87.9600 246° West 402 463 40,000  Level Memphis Center
03:48PM 36.3275 -88.0850 245° Southwest 402 463 40,000  Level Memphis Center
03:49PM 36.2775 -88.2150 245° Southwest 395 455 40,000  Level Memphis Center
03:50PM 36.2278 -88.3425 244° Southwest 395 455 40,000  Level Memphis Center
03:51PM 36.1794 -88.4669 244° Southwest 400 460 40,000  Level Memphis Center
03:52PM 36.1333 -88.5889 245° Southwest 405 466 40,000  Level Memphis Center
03:53PM 36.0831 -88.7108 243° Southwest 405 466 40,000  Level Memphis Center
03:54PM 36.0367 -88.8350 245° Southwest 405 466 40,000  Level Memphis Center
03:55PM 35.9881 -88.9589 244° Southwest 405 466 40,000  Level Memphis Center
03:56PM 35.9392 -89.0775 243° Southwest 405 466 40,000  Level Memphis Center
03:57PM 35.8947 -89.2014 246° West 400 460 40,000  Level Memphis Center
03:58PM 35.8478 -89.3197 244° Southwest 400 460 40,000  Level Memphis Center
03:59PM 35.8006 -89.4408 244° Southwest 400 460 40,000  Level Memphis Center
04:00PM 35.7536 -89.5564 243° Southwest 395 455 40,000  Level Memphis Center
04:01PM 35.7125 -89.6617 244° Southwest 387 445 40,000  Level Memphis Center
04:02PM 35.6694 -89.7922 248° West 382 440 40,000 -600 Level Memphis Center
04:03PM 35.6219 -89.9050 243° Southwest 377 434 38,800 -1,020 Descending Memphis Center
04:04PM 35.5764 -90.0175 244° Southwest 377 434 38,000 -420 Descending Memphis Center
04:05PM 35.5328 -90.1275 244° Southwest 377 434 38,000  Level Memphis Center
04:06PM 35.4869 -90.2397 243° Southwest 366 421 38,000 -900 Level Memphis Center
04:07PM 35.4433 -90.3494 244° Southwest 360 414 36,200 -1,500 Descending Memphis Center
04:08PM 35.3975 -90.4639 244° Southwest 365 420 35,000 -600 Descending Memphis Center
04:09PM 35.3492 -90.5786 243° Southwest 373 429 35,000 -540 Level Memphis Center
04:10PM 35.3031 -90.6956 244° Southwest 373 429 34,000 -540 Descending Memphis Center
04:11PM 35.2528 -90.8097 242° Southwest 383 441 34,000  Level Memphis Center
04:12PM 35.2083 -90.9264 245° Southwest 388 447 34,000  Level Memphis Center
04:13PM 35.1578 -91.0453 243° Southwest 388 447 34,000  Level Memphis Center
04:14PM 35.1156 -91.1492 244° Southwest 388 447 34,000  Level Memphis Center
04:15PM 35.0667 -91.2653 243° Southwest 388 447 34,000  Level Memphis Center
04:16PM 35.0200 -91.3839 244° Southwest 388 447 34,000  Level Memphis Center
04:17PM 34.9689 -91.5000 242° Southwest 388 447 34,000  Level Memphis Center
04:18PM 34.9197 -91.6158 243° Southwest 388 447 34,000  Level Memphis Center
04:19PM 34.8706 -91.7342 243° Southwest 388 447 34,000  Level Memphis Center
04:20PM 34.8233 -91.8472 243° Southwest 388 447 34,000  Level Memphis Center
04:21PM 34.7675 -91.9750 242° Southwest 388 447 34,000  Level Memphis Center
04:22PM 34.7219 -92.0956 245° Southwest 388 447 34,000  Level Memphis Center
04:23PM 34.6703 -92.2056 240° Southwest 383 441 34,000  Level Memphis Center
04:24PM 34.6083 -92.3128 235° Southwest 388 447 34,000  Level Memphis Center
04:25PM 34.5419 -92.4119 231° Southwest 388 447 34,000  Level Memphis Center
04:26PM 34.4797 -92.5164 234° Southwest 388 447 34,000  Level Memphis Center
04:27PM 34.4172 -92.6231 235° Southwest 388 447 34,000  Level Memphis Center
04:28PM 34.3550 -92.7244 233° Southwest 388 447 34,000  Level Memphis Center
04:30PM 34.2053 -92.9664 233° Southwest 381 438 34,000  Level Fort Worth Center
04:31PM 34.1400 -93.0675 232° Southwest 386 444 34,000  Level Fort Worth Center
04:32PM 34.0789 -93.1733 235° Southwest 382 440 34,000  Level Fort Worth Center
04:33PM 34.0156 -93.2767 234° Southwest 382 440 34,000  Level Fort Worth Center
04:34PM 33.9500 -93.3800 233° Southwest 382 440 34,000  Level Fort Worth Center
04:35PM 33.8844 -93.4831 233° Southwest 388 447 34,000  Level Fort Worth Center
04:36PM 33.8208 -93.5858 233° Southwest 388 447 34,000  Level Fort Worth Center
04:37PM 33.7550 -93.6911 233° Southwest 394 453 34,000  Level Fort Worth Center
04:38PM 33.6914 -93.7961 234° Southwest 394 453 34,000 360 Level Fort Worth Center
04:39PM 33.6275 -93.9011 234° Southwest 394 453 34,800 1,260 Climbing Fort Worth Center
04:40PM 33.5594 -94.0061 232° Southwest 394 453 36,600 1,560 Climbing Fort Worth Center
04:41PM 33.4956 -94.1156 235° Southwest 404 465 38,000 1,500 Climbing Fort Worth Center
04:42PM 33.4339 -94.2250 236° Southwest 404 465 39,600 960 Climbing Fort Worth Center
04:43PM 33.3697 -94.3342 235° Southwest 409 471 40,000 180 Climbing Fort Worth Center
04:44PM 33.3078 -94.4433 236° Southwest 409 471 40,000  Level Fort Worth Center
04:45PM 33.2456 -94.5544 236° Southwest 409 471 40,000  Level Fort Worth Center
04:46PM 33.1853 -94.6633 237° Southwest 404 465 40,000  Level Fort Worth Center
04:47PM 33.1208 -94.7719 235° Southwest 404 465 40,000  Level Fort Worth Center
04:48PM 33.0583 -94.8828 236° Southwest 404 465 40,000  Level Fort Worth Center
04:49PM 32.9958 -94.9936 236° Southwest 404 465 40,000  Level Fort Worth Center
04:50PM 32.9333 -95.1042 236° Southwest 404 465 40,000  Level Fort Worth Center
04:51PM 32.8686 -95.2147 235° Southwest 404 465 40,000  Level Fort Worth Center
04:52PM 32.8056 -95.3250 236° Southwest 404 465 40,000  Level Fort Worth Center
04:53PM 32.7406 -95.4375 236° Southwest 404 465 40,000  Level Fort Worth Center
04:54PM 32.6736 -95.5500 235° Southwest 404 465 40,000  Level Fort Worth Center
04:55PM 32.6125 -95.6622 237° Southwest 404 465 40,000  Level Fort Worth Center
04:56PM 32.5533 -95.7619 235° Southwest 409 471 40,000  Level Fort Worth Center
04:57PM 32.4839 -95.8889 237° Southwest 409 471 40,000  Level Fort Worth Center
04:58PM 32.4244 -95.9908 235° Southwest 409 471 40,000  Level Fort Worth Center
04:59PM 32.3508 -96.1125 234° Southwest 417 480 40,000  Level Fort Worth Center
05:00PM 32.2911 -96.2142 235° Southwest 422 486 40,000  Level Fort Worth Center
05:01PM 32.2214 -96.3403 237° Southwest 422 486 40,000  Level Fort Worth Center
05:02PM 32.1533 -96.4467 233° Southwest 415 478 40,000  Level Fort Worth Center
05:03PM 32.0642 -96.5406 222° Southwest 415 478 40,000  Level Fort Worth Center
05:04PM 31.9686 -96.6150 213° Southwest 422 486 40,000  Level Fort Worth Center
05:05PM 31.8792 -96.6867 214° Southwest 428 493 40,000  Level Fort Worth Center
05:06PM 31.7817 -96.7633 214° Southwest 428 493 40,000  Level Fort Worth Center
05:08PM 31.5850 -96.9167 214° Southwest 424 488 40,000  Level Houston Center
05:09PM 31.4864 -96.9925 213° Southwest 421 484 40,000  Level Houston Center
05:10PM 31.3878 -97.0694 214° Southwest 422 486 40,000  Level Houston Center
05:11PM 31.2906 -97.1464 214° Southwest 418 481 40,000  Level Houston Center
05:13PM 31.1706 -97.2258 210° Southwest 421 484 40,000  Level Houston Center
05:14PM 31.0514 -97.2703 198° South 428 493 40,000 -600 Level Houston Center
05:15PM 30.9367 -97.3139 198° South 433 498 38,800 -1,740 Descending Houston Center
05:16PM 30.8328 -97.3553 199° South 429 494 36,500 -2,940 Descending Houston Center
05:17PM 30.7014 -97.4047 198° South 424 488 32,800 -3,180 Descending Houston Center
05:18PM 30.5856 -97.4500 199° South 433 498 30,000 -2,580 Descending Houston Center
05:19PM 30.4728 -97.4939 199° South 425 489 27,500 -2,400 Descending Houston Center
05:20PM 30.3625 -97.5397 200° South 418 481 25,000 -2,400 Descending Houston Center
05:21PM 30.2664 -97.6081 212° Southwest 401 461 22,600 -2,340 Descending Houston Center
05:22PM 30.1719 -97.6733 211° Southwest 393 452 20,200 -2,520 Descending Houston Center
05:22PM 30.1194 -97.7103 211° Southwest 385 443 18,900 -2,820 Descending Houston Center
05:23PM 30.0636 -97.7478 210° Southwest 383 441 17,300 -2,580 Descending Houston Center
05:24PM 30.0089 -97.7850 211° Southwest 376 433 15,800 -2,340 Descending Houston Center
05:24PM 29.9750 -97.8081 211° Southwest 371 427 14,900 -2,400 Descending Houston Center
05:25PM 29.9206 -97.8469 212° Southwest 368 423 13,400 -1,980 Descending Houston Center
05:25PM 29.8878 -97.8822 223° Southwest 360 414 12,900 -1,380 Descending Houston Center
05:26PM 29.8625 -97.9433 245° Southwest 337 388 12,000 -1,200 Descending Houston Center
05:26PM 29.8486 -97.9781 245° Southwest 327 376 11,700 -1,140 Descending Houston Center
05:26PM 29.8317 -98.0172 244° Southwest 304 350 11,000 -1,380 Descending Houston Center
05:27PM 29.8128 -98.0642 245° Southwest 300 345 10,300 -1,500 Descending Houston Center
05:27PM 29.7922 -98.1111 243° Southwest 293 337 9,500 -1,560 Descending Houston Center
05:28PM 29.7739 -98.1547 244° Southwest 294 338 8,700 -1,380 Descending Houston Center
05:29PM 29.7564 -98.1975 245° Southwest 285 328 8,000 -1,380 Descending Houston Center
05:29PM 29.7397 -98.2347 243° Southwest 281 323 7,300 -1,380 Descending Houston Center
05:30PM 29.7217 -98.2764 243° Southwest 273 314 6,600 -1,440 Descending Houston Center
05:30PM 29.7056 -98.3183 246° West 271 312 5,800 -1,380 Descending Houston Center
05:31PM 29.6975 -98.3564 256° West 263 303 5,200 -900 Descending Houston Center
05:31PM 29.6883 -98.3983 256° West 260 299 4,900 -660 Descending Houston Center
05:32PM 29.6831 -98.4253 257° West 237 273 4,600 -900 Descending Houston Center
05:32PM 29.6733 -98.4758 258° West 238 274 4,000 -600 Descending Houston Center
05:33PM 29.6689 -98.5017 259° West 218 251 4,000 -540 Level Houston Center
05:33PM 29.6681 -98.5392 269° West 206 237 3,500 -1,020 Descending Houston Center
05:34PM 29.6664 -98.5644 266° West 198 228 3,000 -540 Descending Houston Center
05:34PM 29.6328 -98.5731 193° South 192 221 3,000 -240 Level Houston Center
05:35PM 29.6186 -98.5725 178° South 178 205 2,800 -720 Descending Houston Center
05:35PM 29.5922 -98.5489 142° Southeast 172 198 2,300 -840 Descending Houston Center
05:36PM 29.5819 -98.5361 133° Southeast 157 181 1,900 -780 Descending Houston Center
05:36PM 29.5636 -98.5111 130° Southeast 149 171 1,500 -720 Descending Houston Center
05:37PM 29.5583 -98.5078 151° Southeast 130 150 1,300 720 Descending Houston Center
05:37PM 29.5411 -98.4814 127° Southeast 131 151 2,300 1,260 Climbing Houston Center
05:39PM 29.5340 -98.4691 201° Southwest  Level Estimated
05:46PM 29.5333 -98.4667 16° North  Level FlightAware Approximate